sensor_id;sensor_type;location;lat;lon;timestamp;pressure;altitude;pressure_sealevel;temperature;humidity
37648;BME280;23490;53.656;10.076;2023-02-11T00:00:00;99492.34;;;-145.95;100.00
37648;BME280;23490;53.656;10.076;2023-02-11T00:02:26;99496.47;;;-145.95;100.00
37648;BME280;23490;53.656;10.076;2023-02-11T00:04:54;99546.06;;;-145.95;100.00
37648;BME280;23490;53.656;10.076;2023-02-11T00:07:19;99521.28;;;-145.95;100.00
37648;BME280;23490;53.656;10.076;2023-02-11T00:09:44;99550.19;;;-145.95;100.00
37648;BME280;23490;53.656;10.076;2023-02-11T00:12:10;99510.94;;;-145.95;100.00
37648;BME280;23490;53.656;10.076;2023-02-11T00:14:35;99523.34;;;-145.95;100.00
37648;BME280;23490;53.656;10.076;2023-02-11T00:17:00;99492.34;;;-145.95;100.00
37648;BME280;23490;53.656;10.076;2023-02-11T00:19:25;99500.63;;;-145.95;100.00
37648;BME280;23490;53.656;10.076;2023-02-11T00:21:51;99525.41;;;-145.95;100.00
37648;BME280;23490;53.656;10.076;2023-02-11T00:24:16;99508.88;;;-145.95;100.00
37648;BME280;23490;53.656;10.076;2023-02-11T00:26:41;99552.25;;;-145.95;100.00
37648;BME280;23490;53.656;10.076;2023-02-11T00:29:07;99523.34;;;-145.95;100.00
37648;BME280;23490;53.656;10.076;2023-02-11T00:31:33;99527.47;;;-145.95;100.00
37648;BME280;23490;53.656;10.076;2023-02-11T00:33:58;99529.53;;;-145.95;100.00
37648;BME280;23490;53.656;10.076;2023-02-11T00:36:26;99508.88;;;-145.95;100.00
37648;BME280;23490;53.656;10.076;2023-02-11T00:38:53;99546.06;;;-145.95;100.00
37648;BME280;23490;53.656;10.076;2023-02-11T00:41:19;99566.69;;;-145.95;100.00
37648;BME280;23490;53.656;10.076;2023-02-11T00:43:45;99583.22;;;-145.95;100.00
37648;BME280;23490;53.656;10.076;2023-02-11T00:46:11;99523.34;;;-145.95;100.00
37648;BME280;23490;53.656;10.076;2023-02-11T00:48:36;99504.75;;;-145.95;100.00
37648;BME280;23490;53.656;10.076;2023-02-11T00:51:02;99546.06;;;-145.95;100.00
37648;BME280;23490;53.656;10.076;2023-02-11T00:53:28;99541.91;;;-145.95;100.00
37648;BME280;23490;53.656;10.076;2023-02-11T00:55:54;99502.69;;;-145.95;100.00
37648;BME280;23490;53.656;10.076;2023-02-11T00:58:19;99546.06;;;-145.95;100.00
37648;BME280;23490;53.656;10.076;2023-02-11T01:00:45;99550.19;;;-145.95;100.00
37648;BME280;23490;53.656;10.076;2023-02-11T01:03:11;99552.25;;;-145.95;100.00
37648;BME280;23490;53.656;10.076;2023-02-11T01:05:36;99574.97;;;-145.95;100.00
37648;BME280;23490;53.656;10.076;2023-02-11T01:08:01;99546.06;;;-145.95;100.00
37648;BME280;23490;53.656;10.076;2023-02-11T01:10:27;99558.44;;;-145.95;100.00
37648;BME280;23490;53.656;10.076;2023-02-11T01:12:52;99527.47;;;-145.95;100.00
37648;BME280;23490;53.656;10.076;2023-02-11T01:15:19;99554.31;;;-145.95;100.00
37648;BME280;23490;53.656;10.076;2023-02-11T01:17:44;99541.91;;;-145.95;100.00
37648;BME280;23490;53.656;10.076;2023-02-11T01:20:16;99525.41;;;-145.95;100.00
37648;BME280;23490;53.656;10.076;2023-02-11T01:22:42;99566.69;;;-145.95;100.00
37648;BME280;23490;53.656;10.076;2023-02-11T01:25:08;99544.00;;;-145.95;100.00
37648;BME280;23490;53.656;10.076;2023-02-11T01:27:34;99517.13;;;-145.95;100.00
37648;BME280;23490;53.656;10.076;2023-02-11T01:30:01;99537.78;;;-145.95;100.00
37648;BME280;23490;53.656;10.076;2023-02-11T01:32:27;99564.63;;;-145.95;100.00
37648;BME280;23490;53.656;10.076;2023-02-11T01:34:53;99558.44;;;-145.95;100.00
37648;BME280;23490;53.656;10.076;2023-02-11T01:37:18;99537.78;;;-145.95;100.00
37648;BME280;23490;53.656;10.076;2023-02-11T01:39:44;99550.19;;;-145.95;100.00
37648;BME280;23490;53.656;10.076;2023-02-11T01:42:21;99500.63;;;-145.95;100.00
37648;BME280;23490;53.656;10.076;2023-02-11T01:44:51;99546.06;;;-145.95;100.00
37648;BME280;23490;53.656;10.076;2023-02-11T01:47:18;99537.78;;;-145.95;100.00
37648;BME280;23490;53.656;10.076;2023-02-11T01:49:46;99529.53;;;-145.95;100.00
37648;BME280;23490;53.656;10.076;2023-02-11T01:52:17;99546.06;;;-145.95;100.00
37648;BME280;23490;53.656;10.076;2023-02-11T01:54:53;99566.69;;;-145.95;100.00
37648;BME280;23490;53.656;10.076;2023-02-11T01:57:41;99558.44;;;-145.95;100.00
37648;BME280;23490;53.656;10.076;2023-02-11T02:00:16;99554.31;;;-145.95;100.00
37648;BME280;23490;53.656;10.076;2023-02-11T02:02:55;99513.00;;;-145.95;100.00
37648;BME280;23490;53.656;10.076;2023-02-11T02:05:40;99558.44;;;-145.95;100.00
37648;BME280;23490;53.656;10.076;2023-02-11T02:10:58;99529.53;;;-145.95;100.00
37648;BME280;23490;53.656;10.076;2023-02-11T02:13:26;99558.44;;;-145.95;100.00
37648;BME280;23490;53.656;10.076;2023-02-11T02:15:54;99525.41;;;-145.95;100.00
37648;BME280;23490;53.656;10.076;2023-02-11T02:18:35;99525.41;;;-145.95;100.00
37648;BME280;23490;53.656;10.076;2023-02-11T02:27:15;99550.19;;;-145.95;100.00
37648;BME280;23490;53.656;10.076;2023-02-11T02:35:47;99550.19;;;-145.95;100.00
37648;BME280;23490;53.656;10.076;2023-02-11T02:38:29;99529.53;;;-145.95;100.00
37648;BME280;23490;53.656;10.076;2023-02-11T02:41:06;99566.69;;;-145.95;100.00
37648;BME280;23490;53.656;10.076;2023-02-11T02:43:33;99554.31;;;-145.95;100.00
37648;BME280;23490;53.656;10.076;2023-02-11T02:46:18;99529.53;;;-145.95;100.00
37648;BME280;23490;53.656;10.076;2023-02-11T02:48:44;99523.34;;;-145.95;100.00
37648;BME280;23490;53.656;10.076;2023-02-11T02:54:43;99541.91;;;-145.95;100.00
37648;BME280;23490;53.656;10.076;2023-02-11T02:56:59;99521.28;;;-145.95;100.00
37648;BME280;23490;53.656;10.076;2023-02-11T03:00:08;99517.13;;;-145.95;100.00
37648;BME280;23490;53.656;10.076;2023-02-11T03:03:01;99525.41;;;-145.95;100.00
37648;BME280;23490;53.656;10.076;2023-02-11T03:05:57;99513.00;;;-145.95;100.00
37648;BME280;23490;53.656;10.076;2023-02-11T03:08:40;99533.66;;;-145.95;100.00
37648;BME280;23490;53.656;10.076;2023-02-11T03:11:08;99546.06;;;-145.95;100.00
37648;BME280;23490;53.656;10.076;2023-02-11T03:13:37;99508.88;;;-145.95;100.00
37648;BME280;23490;53.656;10.076;2023-02-11T03:16:16;99517.13;;;-145.95;100.00
37648;BME280;23490;53.656;10.076;2023-02-11T03:18:46;99529.53;;;-145.95;100.00
37648;BME280;23490;53.656;10.076;2023-02-11T03:21:15;99550.19;;;-145.95;100.00
37648;BME280;23490;53.656;10.076;2023-02-11T03:23:49;99513.00;;;-145.95;100.00
37648;BME280;23490;53.656;10.076;2023-02-11T03:26:47;99546.06;;;-145.95;100.00
37648;BME280;23490;53.656;10.076;2023-02-11T03:29:34;99550.19;;;-145.95;100.00
37648;BME280;23490;53.656;10.076;2023-02-11T03:32:17;99529.53;;;-145.95;100.00
37648;BME280;23490;53.656;10.076;2023-02-11T03:35:09;99521.28;;;-145.95;100.00
37648;BME280;23490;53.656;10.076;2023-02-11T03:37:42;99502.69;;;-145.95;100.00
37648;BME280;23490;53.656;10.076;2023-02-11T03:40:22;99517.13;;;-145.95;100.00
37648;BME280;23490;53.656;10.076;2023-02-11T03:42:53;99515.06;;;-145.95;100.00
37648;BME280;23490;53.656;10.076;2023-02-11T03:45:22;99490.28;;;-145.95;100.00
37648;BME280;23490;53.656;10.076;2023-02-11T03:48:15;99525.41;;;-145.95;100.00
37648;BME280;23490;53.656;10.076;2023-02-11T03:50:44;99471.69;;;-145.95;100.00
37648;BME280;23490;53.656;10.076;2023-02-11T03:53:11;99527.47;;;-145.95;100.00
37648;BME280;23490;53.656;10.076;2023-02-11T03:55:39;99484.09;;;-145.95;100.00
37648;BME280;23490;53.656;10.076;2023-02-11T03:58:05;99525.41;;;-145.95;100.00
37648;BME280;23490;53.656;10.076;2023-02-11T04:00:36;99484.09;;;-145.95;100.00
37648;BME280;23490;53.656;10.076;2023-02-11T04:03:04;99484.09;;;-145.95;100.00
37648;BME280;23490;53.656;10.076;2023-02-11T04:05:31;99459.31;;;-145.95;100.00
37648;BME280;23490;53.656;10.076;2023-02-11T04:07:56;99521.28;;;-145.95;100.00
37648;BME280;23490;53.656;10.076;2023-02-11T04:10:21;99459.31;;;-145.95;100.00
37648;BME280;23490;53.656;10.076;2023-02-11T04:12:47;99459.31;;;-145.95;100.00
37648;BME280;23490;53.656;10.076;2023-02-11T04:15:12;99484.09;;;-145.95;100.00
37648;BME280;23490;53.656;10.076;2023-02-11T04:17:38;99473.75;;;-145.95;100.00
37648;BME280;23490;53.656;10.076;2023-02-11T04:20:04;99475.84;;;-145.95;100.00
37648;BME280;23490;53.656;10.076;2023-02-11T04:22:29;99488.22;;;-145.95;100.00
37648;BME280;23490;53.656;10.076;2023-02-11T04:24:55;99515.06;;;-145.95;100.00
37648;BME280;23490;53.656;10.076;2023-02-11T04:27:20;99479.97;;;-145.95;100.00
37648;BME280;23490;53.656;10.076;2023-02-11T04:29:46;99459.31;;;-145.95;100.00
37648;BME280;23490;53.656;10.076;2023-02-11T04:32:11;99457.25;;;-145.95;100.00
37648;BME280;23490;53.656;10.076;2023-02-11T04:34:37;99490.28;;;-145.95;100.00
37648;BME280;23490;53.656;10.076;2023-02-11T04:37:02;99459.31;;;-145.95;100.00
37648;BME280;23490;53.656;10.076;2023-02-11T04:39:28;99432.47;;;-145.95;100.00
37648;BME280;23490;53.656;10.076;2023-02-11T04:41:53;99513.00;;;-145.95;100.00
37648;BME280;23490;53.656;10.076;2023-02-11T04:44:18;99486.16;;;-145.95;100.00
37648;BME280;23490;53.656;10.076;2023-02-11T04:46:43;99479.97;;;-145.95;100.00
37648;BME280;23490;53.656;10.076;2023-02-11T04:49:12;99463.44;;;-145.95;100.00
37648;BME280;23490;53.656;10.076;2023-02-11T04:51:37;99488.22;;;-145.95;100.00
37648;BME280;23490;53.656;10.076;2023-02-11T04:54:02;99457.25;;;-145.95;100.00
37648;BME280;23490;53.656;10.076;2023-02-11T04:56:28;99457.25;;;-145.95;100.00
37648;BME280;23490;53.656;10.076;2023-02-11T04:58:53;99418.00;;;-145.95;100.00
37648;BME280;23490;53.656;10.076;2023-02-11T05:01:18;99471.69;;;-145.95;100.00
37648;BME280;23490;53.656;10.076;2023-02-11T05:03:44;99477.91;;;-145.95;100.00
37648;BME280;23490;53.656;10.076;2023-02-11T05:06:10;99492.34;;;-145.95;100.00
37648;BME280;23490;53.656;10.076;2023-02-11T05:08:35;99498.56;;;-145.95;100.00
37648;BME280;23490;53.656;10.076;2023-02-11T05:11:00;99479.97;;;-145.95;100.00
37648;BME280;23490;53.656;10.076;2023-02-11T05:13:27;99463.44;;;-145.95;100.00
37648;BME280;23490;53.656;10.076;2023-02-11T05:15:53;99469.63;;;-145.95;100.00
37648;BME280;23490;53.656;10.076;2023-02-11T05:18:18;99492.34;;;-145.95;100.00
37648;BME280;23490;53.656;10.076;2023-02-11T05:20:43;99484.09;;;-145.95;100.00
37648;BME280;23490;53.656;10.076;2023-02-11T05:23:09;99442.78;;;-145.95;100.00
37648;BME280;23490;53.656;10.076;2023-02-11T05:25:35;99467.56;;;-145.95;100.00
37648;BME280;23490;53.656;10.076;2023-02-11T05:28:01;99475.84;;;-145.95;100.00
37648;BME280;23490;53.656;10.076;2023-02-11T05:30:26;99492.34;;;-145.95;100.00
37648;BME280;23490;53.656;10.076;2023-02-11T05:32:52;99442.78;;;-145.95;100.00
37648;BME280;23490;53.656;10.076;2023-02-11T05:35:17;99438.66;;;-145.95;100.00
37648;BME280;23490;53.656;10.076;2023-02-11T05:37:42;99463.44;;;-145.95;100.00
37648;BME280;23490;53.656;10.076;2023-02-11T05:40:08;99479.97;;;-145.95;100.00
37648;BME280;23490;53.656;10.076;2023-02-11T05:42:33;99444.84;;;-145.95;100.00
37648;BME280;23490;53.656;10.076;2023-02-11T05:44:59;99484.09;;;-145.95;100.00
37648;BME280;23490;53.656;10.076;2023-02-11T05:47:24;99484.09;;;-145.95;100.00
37648;BME280;23490;53.656;10.076;2023-02-11T05:49:50;99471.69;;;-145.95;100.00
37648;BME280;23490;53.656;10.076;2023-02-11T05:52:15;99451.06;;;-145.95;100.00
37648;BME280;23490;53.656;10.076;2023-02-11T05:54:41;99451.06;;;-145.95;100.00
37648;BME280;23490;53.656;10.076;2023-02-11T05:57:06;99467.56;;;-145.95;100.00
37648;BME280;23490;53.656;10.076;2023-02-11T05:59:31;99455.19;;;-145.95;100.00
37648;BME280;23490;53.656;10.076;2023-02-11T06:01:57;99463.44;;;-145.95;100.00
37648;BME280;23490;53.656;10.076;2023-02-11T06:04:22;99455.19;;;-145.95;100.00
37648;BME280;23490;53.656;10.076;2023-02-11T06:06:47;99465.50;;;-145.95;100.00
37648;BME280;23490;53.656;10.076;2023-02-11T06:09:13;99461.38;;;-145.95;100.00
37648;BME280;23490;53.656;10.076;2023-02-11T06:11:38;99467.56;;;-145.95;100.00
37648;BME280;23490;53.656;10.076;2023-02-11T06:14:03;99490.28;;;-145.95;100.00
37648;BME280;23490;53.656;10.076;2023-02-11T06:16:29;99434.53;;;-145.95;100.00
37648;BME280;23490;53.656;10.076;2023-02-11T06:18:54;99453.13;;;-145.95;100.00
37648;BME280;23490;53.656;10.076;2023-02-11T06:21:20;99418.00;;;-145.95;100.00
37648;BME280;23490;53.656;10.076;2023-02-11T06:23:45;99446.91;;;-145.95;100.00
37648;BME280;23490;53.656;10.076;2023-02-11T06:26:16;99463.44;;;-145.95;100.00
37648;BME280;23490;53.656;10.076;2023-02-11T06:28:42;99488.22;;;-145.95;100.00
37648;BME280;23490;53.656;10.076;2023-02-11T06:31:07;99455.19;;;-145.95;100.00
37648;BME280;23490;53.656;10.076;2023-02-11T06:33:34;99405.63;;;-145.95;100.00
37648;BME280;23490;53.656;10.076;2023-02-11T06:36:00;99442.78;;;-145.95;100.00
37648;BME280;23490;53.656;10.076;2023-02-11T06:38:26;99430.41;;;-145.95;100.00
37648;BME280;23490;53.656;10.076;2023-02-11T06:40:51;99451.06;;;-145.95;100.00
37648;BME280;23490;53.656;10.076;2023-02-11T06:43:16;99455.19;;;-145.95;100.00
37648;BME280;23490;53.656;10.076;2023-02-11T06:45:42;99409.75;;;-145.95;100.00
37648;BME280;23490;53.656;10.076;2023-02-11T06:48:07;99409.75;;;-145.95;100.00
37648;BME280;23490;53.656;10.076;2023-02-11T06:50:33;99438.66;;;-145.95;100.00
37648;BME280;23490;53.656;10.076;2023-02-11T06:52:58;99428.34;;;-145.95;100.00
37648;BME280;23490;53.656;10.076;2023-02-11T06:55:24;99430.41;;;-145.95;100.00
37648;BME280;23490;53.656;10.076;2023-02-11T06:57:50;99496.47;;;-145.95;100.00
37648;BME280;23490;53.656;10.076;2023-02-11T07:00:15;99438.66;;;-145.95;100.00
37648;BME280;23490;53.656;10.076;2023-02-11T07:02:41;99442.78;;;-145.95;100.00
37648;BME280;23490;53.656;10.076;2023-02-11T07:05:07;99471.69;;;-145.95;100.00
37648;BME280;23490;53.656;10.076;2023-02-11T07:07:32;99418.00;;;-145.95;100.00
37648;BME280;23490;53.656;10.076;2023-02-11T07:09:58;99475.84;;;-145.95;100.00
37648;BME280;23490;53.656;10.076;2023-02-11T07:12:23;99492.34;;;-145.95;100.00
37648;BME280;23490;53.656;10.076;2023-02-11T07:14:48;99494.41;;;-145.95;100.00
37648;BME280;23490;53.656;10.076;2023-02-11T07:17:14;99426.28;;;-145.95;100.00
37648;BME280;23490;53.656;10.076;2023-02-11T07:19:39;99440.72;;;-145.95;100.00
37648;BME280;23490;53.656;10.076;2023-02-11T07:22:04;99465.50;;;-145.95;100.00
37648;BME280;23490;53.656;10.076;2023-02-11T07:24:30;99461.38;;;-145.95;100.00
37648;BME280;23490;53.656;10.076;2023-02-11T07:26:55;99409.75;;;-145.95;100.00
37648;BME280;23490;53.656;10.076;2023-02-11T07:29:20;99418.00;;;-145.95;100.00
37648;BME280;23490;53.656;10.076;2023-02-11T07:31:46;99442.78;;;-145.95;100.00
37648;BME280;23490;53.656;10.076;2023-02-11T07:34:11;99451.06;;;-145.95;100.00
37648;BME280;23490;53.656;10.076;2023-02-11T07:36:36;99465.50;;;-145.95;100.00
37648;BME280;23490;53.656;10.076;2023-02-11T07:39:02;99401.50;;;-145.95;100.00
37648;BME280;23490;53.656;10.076;2023-02-11T07:41:28;99442.78;;;-145.95;100.00
37648;BME280;23490;53.656;10.076;2023-02-11T07:43:54;99484.09;;;-145.95;100.00
37648;BME280;23490;53.656;10.076;2023-02-11T07:46:22;99471.69;;;-145.95;100.00
37648;BME280;23490;53.656;10.076;2023-02-11T07:48:48;99451.06;;;-145.95;100.00
37648;BME280;23490;53.656;10.076;2023-02-11T07:51:16;99490.28;;;-145.95;100.00
37648;BME280;23490;53.656;10.076;2023-02-11T07:53:43;99471.69;;;-145.95;100.00
37648;BME280;23490;53.656;10.076;2023-02-11T07:56:09;99463.44;;;-145.95;100.00
37648;BME280;23490;53.656;10.076;2023-02-11T07:58:35;99405.63;;;-145.95;100.00
37648;BME280;23490;53.656;10.076;2023-02-11T08:01:02;99420.06;;;-145.95;100.00
37648;BME280;23490;53.656;10.076;2023-02-11T08:03:28;99444.84;;;-145.95;100.00
37648;BME280;23490;53.656;10.076;2023-02-11T08:05:53;99432.47;;;-145.95;100.00
37648;BME280;23490;53.656;10.076;2023-02-11T08:08:19;99422.13;;;-145.95;100.00
37648;BME280;23490;53.656;10.076;2023-02-11T08:10:44;99430.41;;;-145.95;100.00
37648;BME280;23490;53.656;10.076;2023-02-11T08:13:09;99430.41;;;-145.95;100.00
37648;BME280;23490;53.656;10.076;2023-02-11T08:15:34;99428.34;;;-145.95;100.00
37648;BME280;23490;53.656;10.076;2023-02-11T08:18:00;99434.53;;;-145.95;100.00
37648;BME280;23490;53.656;10.076;2023-02-11T08:20:25;99413.88;;;-145.95;100.00
37648;BME280;23490;53.656;10.076;2023-02-11T08:22:50;99407.69;;;-145.95;100.00
37648;BME280;23490;53.656;10.076;2023-02-11T08:25:16;99415.94;;;-145.95;100.00
37648;BME280;23490;53.656;10.076;2023-02-11T08:27:41;99430.41;;;-145.95;100.00
37648;BME280;23490;53.656;10.076;2023-02-11T08:30:07;99430.41;;;-145.95;100.00
37648;BME280;23490;53.656;10.076;2023-02-11T08:32:33;99422.13;;;-145.95;100.00
37648;BME280;23490;53.656;10.076;2023-02-11T08:34:58;99391.16;;;-145.95;100.00
37648;BME280;23490;53.656;10.076;2023-02-11T08:37:24;99430.41;;;-145.95;100.00
37648;BME280;23490;53.656;10.076;2023-02-11T08:39:49;99426.28;;;-145.95;100.00
37648;BME280;23490;53.656;10.076;2023-02-11T08:42:15;99451.06;;;-145.95;100.00
37648;BME280;23490;53.656;10.076;2023-02-11T08:44:40;99451.06;;;-145.95;100.00
37648;BME280;23490;53.656;10.076;2023-02-11T08:47:06;99459.31;;;-145.95;100.00
37648;BME280;23490;53.656;10.076;2023-02-11T08:49:31;99382.91;;;-145.95;100.00
37648;BME280;23490;53.656;10.076;2023-02-11T08:51:58;99442.78;;;-145.95;100.00
37648;BME280;23490;53.656;10.076;2023-02-11T08:54:28;99422.13;;;-145.95;100.00
37648;BME280;23490;53.656;10.076;2023-02-11T08:56:53;99413.88;;;-145.95;100.00
37648;BME280;23490;53.656;10.076;2023-02-11T08:59:18;99438.66;;;-145.95;100.00
37648;BME280;23490;53.656;10.076;2023-02-11T09:01:44;99442.78;;;-145.95;100.00
37648;BME280;23490;53.656;10.076;2023-02-11T09:04:11;99422.13;;;-145.95;100.00
37648;BME280;23490;53.656;10.076;2023-02-11T09:06:36;99413.88;;;-145.95;100.00
37648;BME280;23490;53.656;10.076;2023-02-11T09:09:02;99399.41;;;-145.95;100.00
37648;BME280;23490;53.656;10.076;2023-02-11T09:11:31;99442.78;;;-145.95;100.00
37648;BME280;23490;53.656;10.076;2023-02-11T09:13:57;99397.34;;;-145.95;100.00
37648;BME280;23490;53.656;10.076;2023-02-11T09:16:27;99376.69;;;-145.95;100.00
37648;BME280;23490;53.656;10.076;2023-02-11T09:18:53;99376.69;;;-145.95;100.00
37648;BME280;23490;53.656;10.076;2023-02-11T09:21:20;99434.53;;;-145.95;100.00
37648;BME280;23490;53.656;10.076;2023-02-11T09:23:46;99422.13;;;-145.95;100.00
37648;BME280;23490;53.656;10.076;2023-02-11T09:26:23;99397.34;;;-145.95;100.00
37648;BME280;23490;53.656;10.076;2023-02-11T09:28:50;99399.41;;;-145.95;100.00
37648;BME280;23490;53.656;10.076;2023-02-11T09:31:19;99405.63;;;-145.95;100.00
37648;BME280;23490;53.656;10.076;2023-02-11T09:33:46;99393.22;;;-145.95;100.00
37648;BME280;23490;53.656;10.076;2023-02-11T09:36:17;99393.22;;;-145.95;100.00
37648;BME280;23490;53.656;10.076;2023-02-11T09:38:43;99403.56;;;-145.95;100.00
37648;BME280;23490;53.656;10.076;2023-02-11T09:43:57;99405.63;;;-145.95;100.00
37648;BME280;23490;53.656;10.076;2023-02-11T09:46:24;99418.00;;;-145.95;100.00
37648;BME280;23490;53.656;10.076;2023-02-11T09:48:53;99401.50;;;-145.95;100.00
37648;BME280;23490;53.656;10.076;2023-02-11T09:51:40;99418.00;;;-145.95;100.00
37648;BME280;23490;53.656;10.076;2023-02-11T09:54:18;99380.84;;;-145.95;100.00
37648;BME280;23490;53.656;10.076;2023-02-11T09:56:45;99401.50;;;-145.95;100.00
37648;BME280;23490;53.656;10.076;2023-02-11T09:59:15;99407.69;;;-145.95;100.00
37648;BME280;23490;53.656;10.076;2023-02-11T10:01:49;99380.84;;;-145.95;100.00
37648;BME280;23490;53.656;10.076;2023-02-11T10:06:54;99380.84;;;-145.95;100.00
37648;BME280;23490;53.656;10.076;2023-02-11T10:09:32;99426.28;;;-145.95;100.00
37648;BME280;23490;53.656;10.076;2023-02-11T10:12:10;99451.06;;;-145.95;100.00
37648;BME280;23490;53.656;10.076;2023-02-11T10:20:22;99374.63;;;-145.95;100.00
37648;BME280;23490;53.656;10.076;2023-02-11T10:22:53;99358.13;;;-145.95;100.00
37648;BME280;23490;53.656;10.076;2023-02-11T10:25:36;99405.63;;;-145.95;100.00
37648;BME280;23490;53.656;10.076;2023-02-11T10:28:11;99364.31;;;-145.95;100.00
37648;BME280;23490;53.656;10.076;2023-02-11T10:30:59;99368.44;;;-145.95;100.00
37648;BME280;23490;53.656;10.076;2023-02-11T10:35:57;99368.44;;;-145.95;100.00
37648;BME280;23490;53.656;10.076;2023-02-11T10:38:23;99370.50;;;-145.95;100.00
37648;BME280;23490;53.656;10.076;2023-02-11T10:40:48;99356.06;;;-145.95;100.00
37648;BME280;23490;53.656;10.076;2023-02-11T10:43:16;99376.69;;;-145.95;100.00
37648;BME280;23490;53.656;10.076;2023-02-11T10:45:46;99356.06;;;-145.95;100.00
37648;BME280;23490;53.656;10.076;2023-02-11T10:53:35;99360.19;;;-145.95;100.00
37648;BME280;23490;53.656;10.076;2023-02-11T10:56:02;99372.56;;;-145.95;100.00
37648;BME280;23490;53.656;10.076;2023-02-11T10:58:31;99368.44;;;-145.95;100.00
37648;BME280;23490;53.656;10.076;2023-02-11T11:01:00;99418.00;;;-145.95;100.00
37648;BME280;23490;53.656;10.076;2023-02-11T11:03:30;99378.78;;;-145.95;100.00
37648;BME280;23490;53.656;10.076;2023-02-11T11:06:01;99351.91;;;-145.95;100.00
37648;BME280;23490;53.656;10.076;2023-02-11T11:08:48;99368.44;;;-145.95;100.00
37648;BME280;23490;53.656;10.076;2023-02-11T11:11:19;99391.16;;;-145.95;100.00
37648;BME280;23490;53.656;10.076;2023-02-11T11:14:00;99380.84;;;-145.95;100.00
37648;BME280;23490;53.656;10.076;2023-02-11T11:16:36;99349.84;;;-145.95;100.00
37648;BME280;23490;53.656;10.076;2023-02-11T11:21:39;99372.56;;;-145.95;100.00
37648;BME280;23490;53.656;10.076;2023-02-11T11:24:15;99360.19;;;-145.95;100.00
37648;BME280;23490;53.656;10.076;2023-02-11T11:26:52;99387.03;;;-145.95;100.00
37648;BME280;23490;53.656;10.076;2023-02-11T11:29:35;99372.56;;;-145.95;100.00
37648;BME280;23490;53.656;10.076;2023-02-11T11:32:24;99327.13;;;-145.95;100.00
37648;BME280;23490;53.656;10.076;2023-02-11T11:34:52;99325.06;;;-145.95;100.00
37648;BME280;23490;53.656;10.076;2023-02-11T11:37:36;99372.56;;;-145.95;100.00
37648;BME280;23490;53.656;10.076;2023-02-11T11:40:21;99393.22;;;-145.95;100.00
37648;BME280;23490;53.656;10.076;2023-02-11T11:45:38;99376.69;;;-145.95;100.00
37648;BME280;23490;53.656;10.076;2023-02-11T11:50:44;99372.56;;;-145.95;100.00
37648;BME280;23490;53.656;10.076;2023-02-11T11:53:20;99351.91;;;-145.95;100.00
37648;BME280;23490;53.656;10.076;2023-02-11T11:55:52;99415.94;;;-145.95;100.00
37648;BME280;23490;53.656;10.076;2023-02-11T11:58:21;99360.19;;;-145.95;100.00
37648;BME280;23490;53.656;10.076;2023-02-11T12:00:54;99380.84;;;-145.95;100.00
37648;BME280;23490;53.656;10.076;2023-02-11T12:06:18;99360.19;;;-145.95;100.00
37648;BME280;23490;53.656;10.076;2023-02-11T12:14:31;99360.19;;;-145.95;100.00
37648;BME280;23490;53.656;10.076;2023-02-11T12:19:38;99391.16;;;-145.95;100.00
37648;BME280;23490;53.656;10.076;2023-02-11T12:22:10;99356.06;;;-145.95;100.00
37648;BME280;23490;53.656;10.076;2023-02-11T12:30:45;99360.19;;;-145.95;100.00
37648;BME280;23490;53.656;10.076;2023-02-11T12:41:32;99393.22;;;-145.95;100.00
37648;BME280;23490;53.656;10.076;2023-02-11T12:44:29;99372.56;;;-145.95;100.00
37648;BME280;23490;53.656;10.076;2023-02-11T12:47:12;99323.00;;;-145.95;100.00
37648;BME280;23490;53.656;10.076;2023-02-11T12:49:52;99345.72;;;-145.95;100.00
37648;BME280;23490;53.656;10.076;2023-02-11T12:52:35;99320.94;;;-145.95;100.00
37648;BME280;23490;53.656;10.076;2023-02-11T12:57:42;99356.06;;;-145.95;100.00
37648;BME280;23490;53.656;10.076;2023-02-11T13:00:24;99339.53;;;-145.95;100.00
37648;BME280;23490;53.656;10.076;2023-02-11T13:02:58;99343.66;;;-145.95;100.00
37648;BME280;23490;53.656;10.076;2023-02-11T13:05:29;99343.66;;;-145.95;100.00
37648;BME280;23490;53.656;10.076;2023-02-11T13:08:12;99335.41;;;-145.95;100.00
37648;BME280;23490;53.656;10.076;2023-02-11T13:10:40;99366.38;;;-145.95;100.00
37648;BME280;23490;53.656;10.076;2023-02-11T13:16:08;99356.06;;;-145.95;100.00
37648;BME280;23490;53.656;10.076;2023-02-11T13:18:51;99372.56;;;-145.95;100.00
37648;BME280;23490;53.656;10.076;2023-02-11T13:22:12;99318.88;;;-145.95;100.00
37648;BME280;23490;53.656;10.076;2023-02-11T13:24:26;99347.78;;;-145.95;100.00
37648;BME280;23490;53.656;10.076;2023-02-11T13:35:40;99339.53;;;-145.95;100.00
37648;BME280;23490;53.656;10.076;2023-02-11T13:38:20;99351.91;;;-145.95;100.00
37648;BME280;23490;53.656;10.076;2023-02-11T13:43:24;99351.91;;;-145.95;100.00
37648;BME280;23490;53.656;10.076;2023-02-11T13:46:03;99323.00;;;-145.95;100.00
37648;BME280;23490;53.656;10.076;2023-02-11T13:48:35;99360.19;;;-145.95;100.00
37648;BME280;23490;53.656;10.076;2023-02-11T13:51:04;99329.19;;;-145.95;100.00
37648;BME280;23490;53.656;10.076;2023-02-11T13:53:53;99333.34;;;-145.95;100.00
37648;BME280;23490;53.656;10.076;2023-02-11T13:56:28;99335.41;;;-145.95;100.00
37648;BME280;23490;53.656;10.076;2023-02-11T13:58:55;99318.88;;;-145.95;100.00